sensor_id;sensor_type;location;lat;lon;timestamp;temperature;humidity
44271;DHT22;29963;44.594;11.368;2023-02-28T00:00:18;5.30;99.90
44271;DHT22;29963;44.594;11.368;2023-02-28T00:02:45;5.30;99.90
44271;DHT22;29963;44.594;11.368;2023-02-28T00:05:12;5.20;99.90
44271;DHT22;29963;44.594;11.368;2023-02-28T00:07:38;5.20;99.90
44271;DHT22;29963;44.594;11.368;2023-02-28T00:10:08;5.30;99.90
44271;DHT22;29963;44.594;11.368;2023-02-28T00:12:35;5.30;99.90
44271;DHT22;29963;44.594;11.368;2023-02-28T00:15:02;5.30;99.90
44271;DHT22;29963;44.594;11.368;2023-02-28T00:17:28;5.20;99.90
44271;DHT22;29963;44.594;11.368;2023-02-28T00:19:53;5.20;99.90
44271;DHT22;29963;44.594;11.368;2023-02-28T00:22:21;5.10;99.90
44271;DHT22;29963;44.594;11.368;2023-02-28T00:24:47;5.10;99.90
44271;DHT22;29963;44.594;11.368;2023-02-28T00:27:14;5.10;99.90
44271;DHT22;29963;44.594;11.368;2023-02-28T00:29:40;5.10;99.90
44271;DHT22;29963;44.594;11.368;2023-02-28T00:32:06;5.20;99.90
44271;DHT22;29963;44.594;11.368;2023-02-28T00:34:32;5.20;99.90
44271;DHT22;29963;44.594;11.368;2023-02-28T00:37:04;5.20;99.90
44271;DHT22;29963;44.594;11.368;2023-02-28T00:39:30;5.20;99.90
44271;DHT22;29963;44.594;11.368;2023-02-28T00:41:55;5.20;99.90
44271;DHT22;29963;44.594;11.368;2023-02-28T00:44:21;5.30;99.90
44271;DHT22;29963;44.594;11.368;2023-02-28T00:46:47;5.30;99.90
44271;DHT22;29963;44.594;11.368;2023-02-28T00:49:12;5.40;99.90
44271;DHT22;29963;44.594;11.368;2023-02-28T00:51:38;5.40;99.90
44271;DHT22;29963;44.594;11.368;2023-02-28T00:54:04;5.40;99.90
44271;DHT22;29963;44.594;11.368;2023-02-28T00:56:30;5.30;99.90
44271;DHT22;29963;44.594;11.368;2023-02-28T00:58:56;5.30;99.90
44271;DHT22;29963;44.594;11.368;2023-02-28T01:01:22;5.30;99.90
44271;DHT22;29963;44.594;11.368;2023-02-28T01:03:47;5.20;99.90
44271;DHT22;29963;44.594;11.368;2023-02-28T01:06:13;5.10;99.90
44271;DHT22;29963;44.594;11.368;2023-02-28T01:08:38;5.10;99.90
44271;DHT22;29963;44.594;11.368;2023-02-28T01:11:11;5.10;99.90
44271;DHT22;29963;44.594;11.368;2023-02-28T01:13:37;5.10;99.90
44271;DHT22;29963;44.594;11.368;2023-02-28T01:16:03;5.10;99.90
44271;DHT22;29963;44.594;11.368;2023-02-28T01:18:29;5.10;99.90
44271;DHT22;29963;44.594;11.368;2023-02-28T01:20:54;5.10;99.90
44271;DHT22;29963;44.594;11.368;2023-02-28T01:23:22;5.10;99.90
44271;DHT22;29963;44.594;11.368;2023-02-28T01:25:49;5.10;99.90
44271;DHT22;29963;44.594;11.368;2023-02-28T01:28:15;5.10;99.90
44271;DHT22;29963;44.594;11.368;2023-02-28T01:30:41;5.10;99.90
44271;DHT22;29963;44.594;11.368;2023-02-28T01:33:06;5.10;99.90
44271;DHT22;29963;44.594;11.368;2023-02-28T01:35:33;5.10;99.90
44271;DHT22;29963;44.594;11.368;2023-02-28T01:37:59;5.00;99.90
44271;DHT22;29963;44.594;11.368;2023-02-28T01:40:25;5.10;99.90
44271;DHT22;29963;44.594;11.368;2023-02-28T01:42:50;5.00;99.90
44271;DHT22;29963;44.594;11.368;2023-02-28T01:47:50;5.00;99.90
44271;DHT22;29963;44.594;11.368;2023-02-28T01:50:20;5.00;99.90
44271;DHT22;29963;44.594;11.368;2023-02-28T01:52:48;5.00;99.90
44271;DHT22;29963;44.594;11.368;2023-02-28T01:55:16;5.00;99.90
44271;DHT22;29963;44.594;11.368;2023-02-28T01:57:48;5.00;99.90
44271;DHT22;29963;44.594;11.368;2023-02-28T02:00:18;5.00;99.90
44271;DHT22;29963;44.594;11.368;2023-02-28T02:02:47;5.00;99.90
44271;DHT22;29963;44.594;11.368;2023-02-28T02:05:20;5.00;99.90
44271;DHT22;29963;44.594;11.368;2023-02-28T02:07:50;5.00;99.90
44271;DHT22;29963;44.594;11.368;2023-02-28T02:10:21;5.00;99.90
44271;DHT22;29963;44.594;11.368;2023-02-28T02:12:51;5.00;99.90
44271;DHT22;29963;44.594;11.368;2023-02-28T02:17:58;5.00;99.90
44271;DHT22;29963;44.594;11.368;2023-02-28T02:20:58;5.00;99.90
44271;DHT22;29963;44.594;11.368;2023-02-28T02:29:48;5.00;99.90
44271;DHT22;29963;44.594;11.368;2023-02-28T02:35:49;5.00;99.90
44271;DHT22;29963;44.594;11.368;2023-02-28T02:38:37;4.90;99.90
44271;DHT22;29963;44.594;11.368;2023-02-28T02:41:18;4.90;99.90
44271;DHT22;29963;44.594;11.368;2023-02-28T02:43:55;5.00;99.90
44271;DHT22;29963;44.594;11.368;2023-02-28T02:46:43;5.10;99.90
44271;DHT22;29963;44.594;11.368;2023-02-28T02:49:17;5.10;99.90
44271;DHT22;29963;44.594;11.368;2023-02-28T02:51:47;5.20;99.90
44271;DHT22;29963;44.594;11.368;2023-02-28T02:54:26;5.20;99.90
44271;DHT22;29963;44.594;11.368;2023-02-28T02:56:59;5.20;99.90
44271;DHT22;29963;44.594;11.368;2023-02-28T02:59:28;5.20;99.90
44271;DHT22;29963;44.594;11.368;2023-02-28T03:02:00;5.20;99.90
44271;DHT22;29963;44.594;11.368;2023-02-28T03:04:32;5.10;99.90
44271;DHT22;29963;44.594;11.368;2023-02-28T03:06:58;5.10;99.90
44271;DHT22;29963;44.594;11.368;2023-02-28T03:09:25;5.10;99.90
44271;DHT22;29963;44.594;11.368;2023-02-28T03:11:52;5.10;99.90
44271;DHT22;29963;44.594;11.368;2023-02-28T03:14:33;5.20;99.90
44271;DHT22;29963;44.594;11.368;2023-02-28T03:22:45;5.20;99.90
44271;DHT22;29963;44.594;11.368;2023-02-28T03:28:28;5.20;99.90
44271;DHT22;29963;44.594;11.368;2023-02-28T03:33:27;5.10;99.90
44271;DHT22;29963;44.594;11.368;2023-02-28T03:35:58;5.10;99.90
44271;DHT22;29963;44.594;11.368;2023-02-28T03:38:41;5.10;99.90
44271;DHT22;29963;44.594;11.368;2023-02-28T03:41:19;5.10;99.90
44271;DHT22;29963;44.594;11.368;2023-02-28T03:46:52;5.00;99.90
44271;DHT22;29963;44.594;11.368;2023-02-28T03:49:24;5.00;99.90
44271;DHT22;29963;44.594;11.368;2023-02-28T03:51:51;5.20;99.90
44271;DHT22;29963;44.594;11.368;2023-02-28T03:54:23;5.10;99.90
44271;DHT22;29963;44.594;11.368;2023-02-28T03:57:05;5.10;99.90
44271;DHT22;29963;44.594;11.368;2023-02-28T04:00:18;5.00;99.90
44271;DHT22;29963;44.594;11.368;2023-02-28T04:02:24;5.10;99.90
44271;DHT22;29963;44.594;11.368;2023-02-28T04:04:49;5.00;99.90
44271;DHT22;29963;44.594;11.368;2023-02-28T04:07:16;5.00;99.90
44271;DHT22;29963;44.594;11.368;2023-02-28T04:09:42;5.00;99.90
44271;DHT22;29963;44.594;11.368;2023-02-28T04:12:08;5.10;99.90
44271;DHT22;29963;44.594;11.368;2023-02-28T04:14:34;5.10;99.90
44271;DHT22;29963;44.594;11.368;2023-02-28T04:16:59;5.00;99.90
44271;DHT22;29963;44.594;11.368;2023-02-28T04:19:25;5.00;99.90
44271;DHT22;29963;44.594;11.368;2023-02-28T04:21:52;5.00;99.90
44271;DHT22;29963;44.594;11.368;2023-02-28T04:24:20;5.00;99.90
44271;DHT22;29963;44.594;11.368;2023-02-28T04:26:49;5.00;99.90
44271;DHT22;29963;44.594;11.368;2023-02-28T04:31:48;5.00;99.90
44271;DHT22;29963;44.594;11.368;2023-02-28T04:34:14;5.10;99.90
44271;DHT22;29963;44.594;11.368;2023-02-28T04:36:40;5.10;99.90
44271;DHT22;29963;44.594;11.368;2023-02-28T04:39:08;5.10;99.90
44271;DHT22;29963;44.594;11.368;2023-02-28T04:41:35;5.10;99.90
44271;DHT22;29963;44.594;11.368;2023-02-28T04:44:00;5.10;99.90
44271;DHT22;29963;44.594;11.368;2023-02-28T04:46:26;5.10;99.90
44271;DHT22;29963;44.594;11.368;2023-02-28T04:48:51;5.10;99.90
44271;DHT22;29963;44.594;11.368;2023-02-28T04:51:18;5.10;99.90
44271;DHT22;29963;44.594;11.368;2023-02-28T04:53:44;5.10;99.90
44271;DHT22;29963;44.594;11.368;2023-02-28T04:56:12;5.20;99.90
44271;DHT22;29963;44.594;11.368;2023-02-28T04:58:39;5.20;99.90
44271;DHT22;29963;44.594;11.368;2023-02-28T05:01:06;5.20;99.90
44271;DHT22;29963;44.594;11.368;2023-02-28T05:03:38;5.20;99.90
44271;DHT22;29963;44.594;11.368;2023-02-28T05:06:06;5.20;99.90
44271;DHT22;29963;44.594;11.368;2023-02-28T05:08:32;5.20;99.90
44271;DHT22;29963;44.594;11.368;2023-02-28T05:10:57;5.20;99.90
44271;DHT22;29963;44.594;11.368;2023-02-28T05:13:23;5.10;99.90
44271;DHT22;29963;44.594;11.368;2023-02-28T05:15:48;5.20;99.90
44271;DHT22;29963;44.594;11.368;2023-02-28T05:18:14;5.20;99.90
44271;DHT22;29963;44.594;11.368;2023-02-28T05:20:39;5.20;99.90
44271;DHT22;29963;44.594;11.368;2023-02-28T05:23:05;5.20;99.90
44271;DHT22;29963;44.594;11.368;2023-02-28T05:25:30;5.20;99.90
44271;DHT22;29963;44.594;11.368;2023-02-28T05:27:56;5.10;99.90
44271;DHT22;29963;44.594;11.368;2023-02-28T05:30:22;5.10;99.90
44271;DHT22;29963;44.594;11.368;2023-02-28T05:32:50;5.10;99.90
44271;DHT22;29963;44.594;11.368;2023-02-28T05:35:16;5.10;99.90
44271;DHT22;29963;44.594;11.368;2023-02-28T05:37:42;5.10;99.90
44271;DHT22;29963;44.594;11.368;2023-02-28T05:40:08;5.10;99.90
44271;DHT22;29963;44.594;11.368;2023-02-28T05:42:37;5.10;99.90
44271;DHT22;29963;44.594;11.368;2023-02-28T05:45:04;5.10;99.90
44271;DHT22;29963;44.594;11.368;2023-02-28T05:47:30;5.10;99.90
44271;DHT22;29963;44.594;11.368;2023-02-28T05:49:56;5.00;99.90
44271;DHT22;29963;44.594;11.368;2023-02-28T05:52:22;5.10;99.90
44271;DHT22;29963;44.594;11.368;2023-02-28T05:54:50;5.10;99.90
44271;DHT22;29963;44.594;11.368;2023-02-28T05:57:16;5.10;99.90
44271;DHT22;29963;44.594;11.368;2023-02-28T05:59:41;5.20;99.90
44271;DHT22;29963;44.594;11.368;2023-02-28T06:02:12;5.20;99.90
44271;DHT22;29963;44.594;11.368;2023-02-28T06:04:38;5.30;99.90
44271;DHT22;29963;44.594;11.368;2023-02-28T06:07:03;5.20;99.90
44271;DHT22;29963;44.594;11.368;2023-02-28T06:09:29;5.20;99.90
44271;DHT22;29963;44.594;11.368;2023-02-28T06:11:58;5.20;99.90
44271;DHT22;29963;44.594;11.368;2023-02-28T06:14:23;5.20;99.90
44271;DHT22;29963;44.594;11.368;2023-02-28T06:16:49;5.20;99.90
44271;DHT22;29963;44.594;11.368;2023-02-28T06:19:15;5.20;99.90
44271;DHT22;29963;44.594;11.368;2023-02-28T06:21:41;5.20;99.90
44271;DHT22;29963;44.594;11.368;2023-02-28T06:24:07;5.30;99.90
44271;DHT22;29963;44.594;11.368;2023-02-28T06:26:33;5.30;99.90
44271;DHT22;29963;44.594;11.368;2023-02-28T06:28:59;5.30;99.90
44271;DHT22;29963;44.594;11.368;2023-02-28T06:31:26;5.30;99.90
44271;DHT22;29963;44.594;11.368;2023-02-28T06:33:52;5.40;99.90
44271;DHT22;29963;44.594;11.368;2023-02-28T06:36:17;5.40;99.90
44271;DHT22;29963;44.594;11.368;2023-02-28T06:38:43;5.50;99.90
44271;DHT22;29963;44.594;11.368;2023-02-28T06:41:09;5.50;99.90
44271;DHT22;29963;44.594;11.368;2023-02-28T06:43:38;5.40;99.90
44271;DHT22;29963;44.594;11.368;2023-02-28T06:46:06;5.30;99.90
44271;DHT22;29963;44.594;11.368;2023-02-28T06:48:32;5.30;99.90
44271;DHT22;29963;44.594;11.368;2023-02-28T06:51:03;5.20;99.90
44271;DHT22;29963;44.594;11.368;2023-02-28T06:53:28;5.30;99.90
44271;DHT22;29963;44.594;11.368;2023-02-28T06:55:54;5.30;99.90
44271;DHT22;29963;44.594;11.368;2023-02-28T06:58:19;5.30;99.90
44271;DHT22;29963;44.594;11.368;2023-02-28T07:00:45;5.30;99.90
44271;DHT22;29963;44.594;11.368;2023-02-28T07:03:12;5.30;99.90
44271;DHT22;29963;44.594;11.368;2023-02-28T07:05:38;5.30;99.90
44271;DHT22;29963;44.594;11.368;2023-02-28T07:08:05;5.30;99.90
44271;DHT22;29963;44.594;11.368;2023-02-28T07:10:36;5.30;99.90
44271;DHT22;29963;44.594;11.368;2023-02-28T07:13:03;5.30;99.90
44271;DHT22;29963;44.594;11.368;2023-02-28T07:15:29;5.40;99.90
44271;DHT22;29963;44.594;11.368;2023-02-28T07:17:55;5.40;99.90
44271;DHT22;29963;44.594;11.368;2023-02-28T07:20:22;5.60;99.90
44271;DHT22;29963;44.594;11.368;2023-02-28T07:22:49;5.40;99.90
44271;DHT22;29963;44.594;11.368;2023-02-28T07:25:21;5.40;99.90
44271;DHT22;29963;44.594;11.368;2023-02-28T07:27:46;5.40;99.90
44271;DHT22;29963;44.594;11.368;2023-02-28T07:30:12;5.50;99.90
44271;DHT22;29963;44.594;11.368;2023-02-28T07:32:38;5.50;99.90
44271;DHT22;29963;44.594;11.368;2023-02-28T07:35:04;5.60;99.90
44271;DHT22;29963;44.594;11.368;2023-02-28T07:37:32;5.50;99.90
44271;DHT22;29963;44.594;11.368;2023-02-28T07:40:03;5.60;99.90
44271;DHT22;29963;44.594;11.368;2023-02-28T07:42:31;5.60;99.90
44271;DHT22;29963;44.594;11.368;2023-02-28T07:44:57;5.70;99.90
44271;DHT22;29963;44.594;11.368;2023-02-28T07:47:24;5.70;99.90
44271;DHT22;29963;44.594;11.368;2023-02-28T07:49:49;5.70;99.90
44271;DHT22;29963;44.594;11.368;2023-02-28T07:52:15;5.70;99.90
44271;DHT22;29963;44.594;11.368;2023-02-28T07:54:41;5.70;99.90
44271;DHT22;29963;44.594;11.368;2023-02-28T07:57:06;5.70;99.90
44271;DHT22;29963;44.594;11.368;2023-02-28T07:59:32;5.60;99.90
44271;DHT22;29963;44.594;11.368;2023-02-28T08:01:58;5.60;99.90
44271;DHT22;29963;44.594;11.368;2023-02-28T08:04:24;5.60;99.90
44271;DHT22;29963;44.594;11.368;2023-02-28T08:06:50;5.70;99.90
44271;DHT22;29963;44.594;11.368;2023-02-28T08:09:18;5.70;99.90
44271;DHT22;29963;44.594;11.368;2023-02-28T08:11:44;5.70;99.90
44271;DHT22;29963;44.594;11.368;2023-02-28T08:14:10;5.70;99.90
44271;DHT22;29963;44.594;11.368;2023-02-28T08:16:35;5.70;99.90
44271;DHT22;29963;44.594;11.368;2023-02-28T08:19:01;5.80;99.90
44271;DHT22;29963;44.594;11.368;2023-02-28T08:21:26;5.80;99.90
44271;DHT22;29963;44.594;11.368;2023-02-28T08:23:52;5.80;99.90
44271;DHT22;29963;44.594;11.368;2023-02-28T08:26:18;5.80;99.90
44271;DHT22;29963;44.594;11.368;2023-02-28T08:28:44;5.80;99.90
44271;DHT22;29963;44.594;11.368;2023-02-28T08:31:11;5.80;99.90
44271;DHT22;29963;44.594;11.368;2023-02-28T08:33:39;5.80;99.90
44271;DHT22;29963;44.594;11.368;2023-02-28T08:36:05;5.80;99.90
44271;DHT22;29963;44.594;11.368;2023-02-28T08:38:31;5.90;99.90
44271;DHT22;29963;44.594;11.368;2023-02-28T08:40:59;5.90;99.90
44271;DHT22;29963;44.594;11.368;2023-02-28T08:43:24;5.90;99.90
44271;DHT22;29963;44.594;11.368;2023-02-28T08:45:54;6.00;99.90
44271;DHT22;29963;44.594;11.368;2023-02-28T08:48:20;6.00;99.90
44271;DHT22;29963;44.594;11.368;2023-02-28T08:51:05;6.10;99.90
44271;DHT22;29963;44.594;11.368;2023-02-28T08:53:31;6.10;99.90
44271;DHT22;29963;44.594;11.368;2023-02-28T08:55:58;6.20;99.90
44271;DHT22;29963;44.594;11.368;2023-02-28T08:58:24;6.30;99.90
44271;DHT22;29963;44.594;11.368;2023-02-28T09:00:50;6.20;99.90
44271;DHT22;29963;44.594;11.368;2023-02-28T09:03:16;6.30;99.90
44271;DHT22;29963;44.594;11.368;2023-02-28T09:05:58;6.30;99.90
44271;DHT22;29963;44.594;11.368;2023-02-28T09:08:25;6.40;99.90
44271;DHT22;29963;44.594;11.368;2023-02-28T09:10:51;6.40;99.90
44271;DHT22;29963;44.594;11.368;2023-02-28T09:13:18;6.40;99.90
44271;DHT22;29963;44.594;11.368;2023-02-28T09:15:44;6.50;99.90
44271;DHT22;29963;44.594;11.368;2023-02-28T09:18:10;6.50;99.90
44271;DHT22;29963;44.594;11.368;2023-02-28T09:20:40;6.60;99.90
44271;DHT22;29963;44.594;11.368;2023-02-28T09:23:07;6.50;99.90
44271;DHT22;29963;44.594;11.368;2023-02-28T09:25:33;6.50;99.90
44271;DHT22;29963;44.594;11.368;2023-02-28T09:27:59;6.50;99.90
44271;DHT22;29963;44.594;11.368;2023-02-28T09:30:25;6.50;99.90
44271;DHT22;29963;44.594;11.368;2023-02-28T09:32:53;6.50;99.90
44271;DHT22;29963;44.594;11.368;2023-02-28T09:35:22;6.40;99.90
44271;DHT22;29963;44.594;11.368;2023-02-28T09:37:52;6.50;99.90
44271;DHT22;29963;44.594;11.368;2023-02-28T09:40:19;6.50;99.90
44271;DHT22;29963;44.594;11.368;2023-02-28T09:42:47;6.60;99.90
44271;DHT22;29963;44.594;11.368;2023-02-28T09:47:48;6.60;99.90
44271;DHT22;29963;44.594;11.368;2023-02-28T09:50:35;6.80;99.90
44271;DHT22;29963;44.594;11.368;2023-02-28T09:53:34;6.80;99.90
44271;DHT22;29963;44.594;11.368;2023-02-28T09:56:09;7.00;99.90
44271;DHT22;29963;44.594;11.368;2023-02-28T09:59:29;7.10;99.90
44271;DHT22;29963;44.594;11.368;2023-02-28T10:12:41;7.90;99.90
44271;DHT22;29963;44.594;11.368;2023-02-28T10:15:14;8.00;99.90
44271;DHT22;29963;44.594;11.368;2023-02-28T10:17:43;8.10;99.90
44271;DHT22;29963;44.594;11.368;2023-02-28T10:20:14;8.20;99.90
44271;DHT22;29963;44.594;11.368;2023-02-28T10:22:59;8.30;99.90
44271;DHT22;29963;44.594;11.368;2023-02-28T10:25:33;8.40;99.90
44271;DHT22;29963;44.594;11.368;2023-02-28T10:28:09;8.40;99.90
44271;DHT22;29963;44.594;11.368;2023-02-28T10:30:43;8.50;99.90
44271;DHT22;29963;44.594;11.368;2023-02-28T10:33:30;8.50;99.90
44271;DHT22;29963;44.594;11.368;2023-02-28T10:35:59;8.60;99.90
44271;DHT22;29963;44.594;11.368;2023-02-28T10:38:33;8.60;99.90
44271;DHT22;29963;44.594;11.368;2023-02-28T10:41:07;8.70;99.90
44271;DHT22;29963;44.594;11.368;2023-02-28T10:43:33;8.70;99.90
44271;DHT22;29963;44.594;11.368;2023-02-28T10:46:17;8.80;99.90
44271;DHT22;29963;44.594;11.368;2023-02-28T10:49:21;8.80;99.90
44271;DHT22;29963;44.594;11.368;2023-02-28T10:51:55;8.80;99.90
44271;DHT22;29963;44.594;11.368;2023-02-28T10:54:33;8.80;99.90
44271;DHT22;29963;44.594;11.368;2023-02-28T10:57:20;8.90;99.90
44271;DHT22;29963;44.594;11.368;2023-02-28T10:59:51;9.00;99.90
44271;DHT22;29963;44.594;11.368;2023-02-28T11:02:36;9.00;99.90
44271;DHT22;29963;44.594;11.368;2023-02-28T11:05:27;9.10;99.90
44271;DHT22;29963;44.594;11.368;2023-02-28T11:07:56;9.10;99.90
44271;DHT22;29963;44.594;11.368;2023-02-28T11:10:26;9.20;99.90
44271;DHT22;29963;44.594;11.368;2023-02-28T11:12:55;9.10;99.90
44271;DHT22;29963;44.594;11.368;2023-02-28T11:15:26;9.20;99.90
44271;DHT22;29963;44.594;11.368;2023-02-28T11:18:30;9.20;99.90
44271;DHT22;29963;44.594;11.368;2023-02-28T11:21:02;9.20;99.90
44271;DHT22;29963;44.594;11.368;2023-02-28T11:23:30;9.30;99.90
44271;DHT22;29963;44.594;11.368;2023-02-28T11:26:00;9.40;99.90
44271;DHT22;29963;44.594;11.368;2023-02-28T11:28:28;9.50;99.90
44271;DHT22;29963;44.594;11.368;2023-02-28T11:33:54;9.50;99.90
44271;DHT22;29963;44.594;11.368;2023-02-28T11:38:47;9.50;99.90
44271;DHT22;29963;44.594;11.368;2023-02-28T11:41:31;9.50;99.90
44271;DHT22;29963;44.594;11.368;2023-02-28T11:47:10;9.60;99.90
44271;DHT22;29963;44.594;11.368;2023-02-28T11:50:01;9.60;99.90
44271;DHT22;29963;44.594;11.368;2023-02-28T11:55:36;9.60;99.90
44271;DHT22;29963;44.594;11.368;2023-02-28T12:04:22;9.70;99.90
44271;DHT22;29963;44.594;11.368;2023-02-28T12:09:57;9.80;99.90
44271;DHT22;29963;44.594;11.368;2023-02-28T12:12:37;9.80;99.90
44271;DHT22;29963;44.594;11.368;2023-02-28T12:18:30;9.80;99.90
44271;DHT22;29963;44.594;11.368;2023-02-28T12:20:45;9.60;99.90
44271;DHT22;29963;44.594;11.368;2023-02-28T12:28:44;9.20;99.90
44271;DHT22;29963;44.594;11.368;2023-02-28T12:31:23;9.20;99.90
44271;DHT22;29963;44.594;11.368;2023-02-28T12:33:55;9.20;99.90
44271;DHT22;29963;44.594;11.368;2023-02-28T12:36:22;9.10;99.90
44271;DHT22;29963;44.594;11.368;2023-02-28T12:39:15;9.00;99.90
44271;DHT22;29963;44.594;11.368;2023-02-28T12:41:46;8.90;99.90
44271;DHT22;29963;44.594;11.368;2023-02-28T12:44:17;8.70;99.90
44271;DHT22;29963;44.594;11.368;2023-02-28T12:46:48;8.50;99.90
44271;DHT22;29963;44.594;11.368;2023-02-28T12:50:11;8.50;99.90
44271;DHT22;29963;44.594;11.368;2023-02-28T12:52:13;8.50;99.90
44271;DHT22;29963;44.594;11.368;2023-02-28T12:54:49;8.50;99.90
44271;DHT22;29963;44.594;11.368;2023-02-28T13:00:14;8.50;99.90
44271;DHT22;29963;44.594;11.368;2023-02-28T13:08:12;8.70;99.90
44271;DHT22;29963;44.594;11.368;2023-02-28T13:10:47;8.80;99.90
44271;DHT22;29963;44.594;11.368;2023-02-28T13:13:19;8.80;99.90
44271;DHT22;29963;44.594;11.368;2023-02-28T13:16:07;8.80;99.90
44271;DHT22;29963;44.594;11.368;2023-02-28T13:18:45;8.90;99.90
44271;DHT22;29963;44.594;11.368;2023-02-28T13:21:27;8.80;99.90
44271;DHT22;29963;44.594;11.368;2023-02-28T13:34:32;8.50;99.90
44271;DHT22;29963;44.594;11.368;2023-02-28T13:47:43;8.00;99.90
44271;DHT22;29963;44.594;11.368;2023-02-28T13:50:33;8.00;99.90
44271;DHT22;29963;44.594;11.368;2023-02-28T14:01:40;8.30;99.90
44271;DHT22;29963;44.594;11.368;2023-02-28T14:04:54;8.30;99.90
44271;DHT22;29963;44.594;11.368;2023-02-28T14:07:27;8.30;99.90
44271;DHT22;29963;44.594;11.368;2023-02-28T14:10:05;8.20;99.90
44271;DHT22;29963;44.594;11.368;2023-02-28T14:15:43;8.20;99.90
44271;DHT22;29963;44.594;11.368;2023-02-28T14:20:54;8.20;99.90
44271;DHT22;29963;44.594;11.368;2023-02-28T14:23:52;8.10;99.90
44271;DHT22;29963;44.594;11.368;2023-02-28T14:32:01;8.00;99.90
44271;DHT22;29963;44.594;11.368;2023-02-28T14:34:55;7.90;99.90
44271;DHT22;29963;44.594;11.368;2023-02-28T14:37:29;7.90;99.90
44271;DHT22;29963;44.594;11.368;2023-02-28T14:39:57;7.80;99.90
44271;DHT22;29963;44.594;11.368;2023-02-28T14:42:29;7.80;99.90
44271;DHT22;29963;44.594;11.368;2023-02-28T14:44:55;7.80;99.90
44271;DHT22;29963;44.594;11.368;2023-02-28T14:47:28;7.70;99.90
44271;DHT22;29963;44.594;11.368;2023-02-28T14:49:54;7.70;99.90
44271;DHT22;29963;44.594;11.368;2023-02-28T14:52:26;7.70;99.90
44271;DHT22;29963;44.594;11.368;2023-02-28T14:55:09;7.70;99.90
44271;DHT22;29963;44.594;11.368;2023-02-28T14:57:42;7.70;99.90
44271;DHT22;29963;44.594;11.368;2023-02-28T15:02:46;7.70;99.90
44271;DHT22;29963;44.594;11.368;2023-02-28T15:07:37;7.70;99.90
44271;DHT22;29963;44.594;11.368;2023-02-28T15:12:32;7.70;99.90
44271;DHT22;29963;44.594;11.368;2023-02-28T15:14:58;7.70;99.90
44271;DHT22;29963;44.594;11.368;2023-02-28T15:17:25;7.70;99.90
44271;DHT22;29963;44.594;11.368;2023-02-28T15:19:52;7.70;99.90
44271;DHT22;29963;44.594;11.368;2023-02-28T15:22:27;7.70;99.90
44271;DHT22;29963;44.594;11.368;2023-02-28T15:24:56;7.70;99.90
44271;DHT22;29963;44.594;11.368;2023-02-28T15:27:27;7.70;99.90
44271;DHT22;29963;44.594;11.368;2023-02-28T15:29:57;7.70;99.90
44271;DHT22;29963;44.594;11.368;2023-02-28T15:32:38;7.70;99.90
44271;DHT22;29963;44.594;11.368;2023-02-28T15:37:48;7.80;99.90
44271;DHT22;29963;44.594;11.368;2023-02-28T15:40:22;7.80;99.90
44271;DHT22;29963;44.594;11.368;2023-02-28T15:43:22;7.70;99.90
44271;DHT22;29963;44.594;11.368;2023-02-28T15:45:55;7.70;99.90
44271;DHT22;29963;44.594;11.368;2023-02-28T15:48:27;7.70;99.90
44271;DHT22;29963;44.594;11.368;2023-02-28T15:53:33;7.70;99.90
44271;DHT22;29963;44.594;11.368;2023-02-28T15:56:06;7.70;99.90
44271;DHT22;29963;44.594;11.368;2023-02-28T15:58:37;7.80;99.90
44271;DHT22;29963;44.594;11.368;2023-02-28T16:04:01;7.80;99.90
44271;DHT22;29963;44.594;11.368;2023-02-28T16:08:58;7.90;99.90
44271;DHT22;29963;44.594;11.368;2023-02-28T16:11:24;7.90;99.90
44271;DHT22;29963;44.594;11.368;2023-02-28T16:13:51;7.80;99.90
44271;DHT22;29963;44.594;11.368;2023-02-28T16:16:23;7.80;99.90
44271;DHT22;29963;44.594;11.368;2023-02-28T16:18:50;7.80;99.90
44271;DHT22;29963;44.594;11.368;2023-02-28T16:21:16;7.70;99.90
44271;DHT22;29963;44.594;11.368;2023-02-28T16:23:44;7.70;99.90
44271;DHT22;29963;44.594;11.368;2023-02-28T16:26:23;7.80;99.90
44271;DHT22;29963;44.594;11.368;2023-02-28T16:28:49;7.80;99.90
44271;DHT22;29963;44.594;11.368;2023-02-28T16:31:16;7.80;99.90
44271;DHT22;29963;44.594;11.368;2023-02-28T16:33:43;7.80;99.90
44271;DHT22;29963;44.594;11.368;2023-02-28T16:36:14;7.80;99.90
44271;DHT22;29963;44.594;11.368;2023-02-28T16:38:40;7.80;99.90
44271;DHT22;29963;44.594;11.368;2023-02-28T16:41:05;7.80;99.90
44271;DHT22;29963;44.594;11.368;2023-02-28T16:43:31;7.80;99.90
44271;DHT22;29963;44.594;11.368;2023-02-28T16:45:58;7.90;99.90
44271;DHT22;29963;44.594;11.368;2023-02-28T16:48:25;7.90;99.90
44271;DHT22;29963;44.594;11.368;2023-02-28T16:50:51;7.90;99.90
44271;DHT22;29963;44.594;11.368;2023-02-28T16:53:17;7.90;99.90
44271;DHT22;29963;44.594;11.368;2023-02-28T16:55:43;7.90;99.90
44271;DHT22;29963;44.594;11.368;2023-02-28T16:58:15;7.90;99.90
44271;DHT22;29963;44.594;11.368;2023-02-28T17:00:42;7.90;99.90
44271;DHT22;29963;44.594;11.368;2023-02-28T17:03:22;7.90;99.90
44271;DHT22;29963;44.594;11.368;2023-02-28T17:05:48;7.90;99.90
44271;DHT22;29963;44.594;11.368;2023-02-28T17:08:17;7.90;99.90
44271;DHT22;29963;44.594;11.368;2023-02-28T17:10:42;7.90;99.90
44271;DHT22;29963;44.594;11.368;2023-02-28T17:13:08;7.90;99.90
44271;DHT22;29963;44.594;11.368;2023-02-28T17:15:35;7.90;99.90
44271;DHT22;29963;44.594;11.368;2023-02-28T17:18:00;7.90;99.90
44271;DHT22;29963;44.594;11.368;2023-02-28T17:20:26;7.90;99.90
44271;DHT22;29963;44.594;11.368;2023-02-28T17:22:53;7.90;99.90
44271;DHT22;29963;44.594;11.368;2023-02-28T17:25:19;7.80;99.90
44271;DHT22;29963;44.594;11.368;2023-02-28T17:27:45;7.80;99.90
44271;DHT22;29963;44.594;11.368;2023-02-28T17:30:15;7.80;99.90
44271;DHT22;29963;44.594;11.368;2023-02-28T17:32:41;7.70;99.90
44271;DHT22;29963;44.594;11.368;2023-02-28T17:35:08;7.70;99.90
44271;DHT22;29963;44.594;11.368;2023-02-28T17:37:33;7.60;99.90
44271;DHT22;29963;44.594;11.368;2023-02-28T17:39:59;7.60;99.90
44271;DHT22;29963;44.594;11.368;2023-02-28T17:42:25;7.50;99.90
44271;DHT22;29963;44.594;11.368;2023-02-28T17:44:51;7.50;99.90
44271;DHT22;29963;44.594;11.368;2023-02-28T17:47:16;7.50;99.90
44271;DHT22;29963;44.594;11.368;2023-02-28T17:49:42;7.60;99.90
44271;DHT22;29963;44.594;11.368;2023-02-28T17:52:08;7.60;99.90
44271;DHT22;29963;44.594;11.368;2023-02-28T17:54:33;7.60;99.90
44271;DHT22;29963;44.594;11.368;2023-02-28T17:56:59;7.70;99.90
44271;DHT22;29963;44.594;11.368;2023-02-28T17:59:25;7.70;99.90
44271;DHT22;29963;44.594;11.368;2023-02-28T18:02:02;7.60;99.90
44271;DHT22;29963;44.594;11.368;2023-02-28T18:04:29;7.60;99.90
44271;DHT22;29963;44.594;11.368;2023-02-28T18:06:55;7.50;99.90
44271;DHT22;29963;44.594;11.368;2023-02-28T18:09:26;7.50;99.90